This is the latest recevied weather packets stored in our database for station/object KC7UNY-13. If no packets are shown the sender has not sent any weather packets the latest 10 day(s).
| Time | Temp. | Humidity | Pressure | Rain* | Wind** | Luminosity | Snow |
|---|---|---|---|---|---|---|---|
| 1777162954 | 28.89° C | 23% | 1007 hPa | 0 mm | - | 132 W/m² | - |
| 1777162648 | 28.89° C | 23% | 1007.1 hPa | 0 mm | - | 71 W/m² | - |
| 1777162348 | 29.44° C | 23% | 1007 hPa | 0 mm | - | 187 W/m² | - |
| 1777162043 | 29.44° C | 23% | 1007.2 hPa | 0 mm | - | 189 W/m² | - |
| 1777161738 | 29.44° C | 23% | 1007.1 hPa | 0 mm | - | 213 W/m² | - |
| 1777161436 | 29.44° C | 22% | 1007.2 hPa | 0 mm | - | 275 W/m² | - |
| 1777161131 | 28.89° C | 23% | 1007.2 hPa | 0 mm | - | 318 W/m² | - |
| 1777160828 | 28.33° C | 23% | 1007.2 hPa | 0 mm | - | 249 W/m² | - |
| 1777160528 | 27.78° C | 24% | 1007.4 hPa | 0 mm | - | 178 W/m² | - |
| 1777160225 | 28.33° C | 23% | 1007.3 hPa | 0 mm | - | 180 W/m² | - |
| 1777159920 | 27.78° C | 23% | 1007.5 hPa | 0 mm | - | 241 W/m² | - |
| 1777159616 | 27.78° C | 22% | 1007.5 hPa | 0 mm | - | 125 W/m² | - |
| 1777159313 | 27.78° C | 23% | 1007.6 hPa | 0 mm | - | 127 W/m² | - |
| 1777159009 | 27.78° C | 22% | 1007.7 hPa | 0 mm | - | 163 W/m² | - |
| 1777158703 | 27.78° C | 23% | 1007.7 hPa | 0 mm | - | 177 W/m² | - |
| 1777158400 | 28.89° C | 22% | 1007.8 hPa | 0 mm | - | 199 W/m² | - |
| 1777158095 | 28.89° C | 23% | 1008 hPa | 0 mm | - | 149 W/m² | - |
| 1777157790 | 30° C | 21% | 1007.7 hPa | 0 mm | - | 207 W/m² | - |
| 1777157487 | 29.44° C | 22% | 1008 hPa | 0 mm | - | 419 W/m² | - |
| 1777157184 | 29.44° C | 21% | 1008.1 hPa | 0 mm | - | 473 W/m² | - |
| 1777156883 | 29.44° C | 22% | 1008 hPa | 0 mm | - | 500 W/m² | - |
| 1777156578 | 29.44° C | 22% | 1008.1 hPa | 0 mm | - | 469 W/m² | - |
| 1777156275 | 30° C | 21% | 1008.2 hPa | 0 mm | - | 534 W/m² | - |
| 1777155972 | 29.44° C | 22% | 1008.3 hPa | 0 mm | - | 554 W/m² | - |
| 1777155668 | 29.44° C | 22% | 1008.4 hPa | 0 mm | - | 547 W/m² | - |
* Rain latest hour (hover to see other rain measurements)
** Current wind speed in m/s (hover to see current wind gust speed)